createdAt,value
2023-04-02T00:01:43.951Z,99067.84
2023-04-02T00:05:31.763Z,99065.91
2023-04-02T00:08:43.483Z,99072.31
2023-04-02T00:11:48.925Z,99071.59
2023-04-02T00:14:55.644Z,99071.03
2023-04-02T00:18:00.043Z,99068.97
2023-04-02T00:21:10.281Z,99071.16
2023-04-02T00:24:21.994Z,99066.03
2023-04-02T00:27:24.570Z,99069.19
2023-04-02T00:30:28.211Z,99063.84
2023-04-02T00:33:32.116Z,99062.69
2023-04-02T00:36:35.569Z,99059.62
2023-04-02T00:39:42.184Z,99060.06
2023-04-02T00:42:46.931Z,99069.78
2023-04-02T00:45:56.292Z,99065.38
2023-04-02T00:49:10.768Z,99074.78
2023-04-02T00:52:17.498Z,99073.97
2023-04-02T00:55:27.417Z,99063.16
2023-04-02T00:58:34.098Z,99061.25
2023-04-02T01:01:37.813Z,99064.81
2023-04-02T01:04:41.195Z,99066.91
2023-04-02T01:08:08.206Z,99064.13
2023-04-02T01:11:28.865Z,99067.19
2023-04-02T01:14:56.431Z,99069.00
2023-04-02T01:18:13.790Z,99074.53
2023-04-02T01:21:38.084Z,99081.22
2023-04-02T01:24:44.427Z,99078.97
2023-04-02T01:28:07.048Z,99080.63
2023-04-02T01:31:10.638Z,99076.34
2023-04-02T01:34:20.509Z,99083.97
2023-04-02T01:37:34.325Z,99078.56
2023-04-02T01:41:04.570Z,99077.03
2023-04-02T01:44:17.720Z,99081.78
2023-04-02T01:47:25.623Z,99090.75
2023-04-02T01:50:37.394Z,99095.91
2023-04-02T01:53:40.579Z,99099.06
2023-04-02T01:56:44.875Z,99099.78
2023-04-02T01:59:48.211Z,99099.75
2023-04-02T02:02:52.189Z,99097.56
2023-04-02T02:05:56.766Z,99099.75
2023-04-02T02:09:04.557Z,99099.94
2023-04-02T02:12:13.217Z,99106.44
2023-04-02T02:15:18.539Z,99101.44
2023-04-02T02:18:25.928Z,99106.44
2023-04-02T02:21:49.624Z,99116.97
2023-04-02T02:25:06.649Z,99111.19
2023-04-02T02:28:26.027Z,99111.47
2023-04-02T02:31:34.423Z,99111.97
2023-04-02T02:34:43.590Z,99115.19
2023-04-02T02:37:54.887Z,99112.41
2023-04-02T02:41:05.046Z,99117.78
2023-04-02T02:44:08.751Z,99113.09
2023-04-02T02:47:17.061Z,99110.19
2023-04-02T02:50:24.497Z,99107.41
2023-04-02T02:53:27.794Z,99111.56
2023-04-02T02:56:34.863Z,99111.47
2023-04-02T02:59:38.389Z,99112.22
2023-04-02T03:02:43.446Z,99107.13
2023-04-02T03:05:52.739Z,99114.06
2023-04-02T03:09:13.541Z,99114.22
2023-04-02T03:12:38.698Z,99122.25
2023-04-02T03:16:00.356Z,99115.31
2023-04-02T03:19:11.779Z,99108.66
2023-04-02T03:22:23.564Z,99112.28
2023-04-02T03:25:37.147Z,99110.88
2023-04-02T03:28:46.792Z,99110.59
2023-04-02T03:32:00.681Z,99111.69
2023-04-02T03:35:20.560Z,99110.28
2023-04-02T03:38:35.770Z,99116.66
2023-04-02T03:41:48.092Z,99115.00
2023-04-02T03:45:19.434Z,99118.88
2023-04-02T03:48:34.082Z,99117.25
2023-04-02T03:51:51.935Z,99121.66
2023-04-02T03:55:01.223Z,99124.44
2023-04-02T03:58:22.186Z,99125.25
2023-04-02T04:01:53.494Z,99121.81
2023-04-02T04:04:57.868Z,99127.88
2023-04-02T04:08:05.601Z,99127.44
2023-04-02T04:11:17.625Z,99125.75
2023-04-02T04:14:32.956Z,99140.13
2023-04-02T04:17:56.886Z,99135.16
2023-04-02T04:21:12.266Z,99143.34
2023-04-02T04:24:27.291Z,99148.06
2023-04-02T04:27:53.897Z,99152.03
2023-04-02T04:31:01.481Z,99148.00
2023-04-02T04:34:11.615Z,99151.91
2023-04-02T04:37:21.711Z,99157.56
2023-04-02T04:40:42.356Z,99156.53
2023-04-02T04:43:52.299Z,99155.81
2023-04-02T04:47:06.402Z,99158.22
2023-04-02T04:50:31.248Z,99164.75
2023-04-02T04:53:38.214Z,99164.03
2023-04-02T04:56:46.863Z,99165.94
2023-04-02T04:59:58.723Z,99164.41
2023-04-02T05:03:30.460Z,99170.03
2023-04-02T05:06:52.192Z,99164.13
2023-04-02T05:10:01.557Z,99159.00
2023-04-02T05:13:35.491Z,99167.12
2023-04-02T05:16:46.303Z,99172.31
2023-04-02T05:20:16.332Z,99175.41
2023-04-02T05:23:30.517Z,99177.41
2023-04-02T05:26:45.895Z,99182.03
2023-04-02T05:30:00.201Z,99181.88
2023-04-02T05:33:21.146Z,99185.56
2023-04-02T05:36:32.539Z,99187.63
2023-04-02T05:39:35.596Z,99188.97
2023-04-02T05:42:43.521Z,99184.22
2023-04-02T05:45:54.342Z,99185.75
2023-04-02T05:49:00.300Z,99197.22
2023-04-02T05:52:06.973Z,99205.69
2023-04-02T05:55:13.350Z,99205.66
2023-04-02T06:01:45.422Z,99214.00
2023-04-02T06:05:04.366Z,99205.59
2023-04-02T06:08:22.781Z,99218.91
2023-04-02T06:11:35.443Z,99217.88
2023-04-02T06:14:38.489Z,99207.16
2023-04-02T06:17:51.218Z,99214.38
2023-04-02T06:20:55.446Z,99218.97
2023-04-02T06:24:03.460Z,99210.09
2023-04-02T06:27:11.969Z,99212.88
2023-04-02T06:30:32.992Z,99214.47
2023-04-02T06:33:36.542Z,99218.53
2023-04-02T06:36:40.402Z,99214.19
2023-04-02T06:39:43.870Z,99221.59
2023-04-02T06:42:59.579Z,99221.94
2023-04-02T06:46:18.330Z,99221.16
2023-04-02T06:53:00.363Z,99233.09
2023-04-02T06:56:22.273Z,99229.78
2023-04-02T07:03:30.820Z,99233.84
2023-04-02T07:06:42.756Z,99237.03
2023-04-02T07:09:46.780Z,99242.00
2023-04-02T07:12:51.100Z,99239.34
2023-04-02T07:15:56.287Z,99236.03
2023-04-02T07:19:00.929Z,99238.31
2023-04-02T07:22:07.384Z,99243.34
2023-04-02T07:25:14.351Z,99256.72
2023-04-02T07:28:22.765Z,99248.91
2023-04-02T07:32:17.074Z,99257.69
2023-04-02T07:35:20.801Z,99258.34
2023-04-02T07:47:28.082Z,99275.56
2023-04-02T07:50:32.094Z,99262.44
2023-04-02T07:53:44.709Z,99271.16
2023-04-02T07:56:55.174Z,99274.34
2023-04-02T08:00:31.072Z,99273.91
2023-04-02T08:03:35.781Z,99281.53
2023-04-02T08:06:39.696Z,99286.13
2023-04-02T08:09:50.216Z,99289.22
2023-04-02T08:12:56.059Z,99296.97
2023-04-02T08:16:16.912Z,99296.25
2023-04-02T08:19:28.314Z,99305.09
2023-04-02T08:22:49.580Z,99308.78
2023-04-02T08:26:03.337Z,99312.56
2023-04-02T08:29:13.333Z,99309.88
2023-04-02T08:32:17.306Z,99310.06
2023-04-02T08:35:59.722Z,99308.41
2023-04-02T08:43:13.380Z,99300.41
2023-04-02T08:46:41.335Z,99314.22
2023-04-02T08:49:52.927Z,99312.66
2023-04-02T08:53:01.032Z,99317.44
2023-04-02T08:56:22.443Z,99321.66
2023-04-02T08:59:34.957Z,99319.88
2023-04-02T09:02:41.610Z,99319.41
2023-04-02T09:05:46.544Z,99319.00
2023-04-02T09:08:52.526Z,99326.53
2023-04-02T09:12:04.081Z,99320.34
2023-04-02T09:15:22.736Z,99322.25
2023-04-02T09:18:28.608Z,99329.41
2023-04-02T09:21:37.680Z,99327.44
2023-04-02T09:24:40.591Z,99332.44
2023-04-02T09:27:52.298Z,99340.59
2023-04-02T09:31:20.402Z,99333.75
2023-04-02T09:34:29.679Z,99337.09
2023-04-02T09:37:39.216Z,99332.41
2023-04-02T09:40:56.302Z,99342.50
2023-04-02T09:44:31.262Z,99334.91
2023-04-02T09:47:34.392Z,99338.72
2023-04-02T09:50:37.718Z,99334.94
2023-04-02T09:53:46.742Z,99344.78
2023-04-02T09:57:04.022Z,99334.38
2023-04-02T10:00:29.745Z,99337.47
2023-04-02T10:03:35.649Z,99344.16
2023-04-02T10:07:01.549Z,99348.69
2023-04-02T10:10:30.767Z,99347.84
2023-04-02T10:13:52.944Z,99351.47
2023-04-02T10:16:59.693Z,99343.03
2023-04-02T10:20:22.404Z,99349.91
2023-04-02T10:23:29.835Z,99349.12
2023-04-02T10:26:52.504Z,99342.22
2023-04-02T10:30:13.889Z,99344.09
2023-04-02T10:33:33.228Z,99343.66
2023-04-02T10:36:51.487Z,99347.91
2023-04-02T10:40:02.005Z,99343.56
2023-04-02T10:43:39.819Z,99337.00
2023-04-02T10:47:13.843Z,99336.72
2023-04-02T10:50:44.717Z,99331.59
2023-04-02T10:53:53.441Z,99337.34
2023-04-02T10:57:06.824Z,99334.56
2023-04-02T11:00:18.834Z,99337.28
2023-04-02T11:03:45.695Z,99343.88
2023-04-02T11:07:13.327Z,99337.81
2023-04-02T11:10:20.908Z,99343.19
2023-04-02T11:13:43.230Z,99340.34
2023-04-02T11:16:49.278Z,99341.38
2023-04-02T11:19:52.833Z,99330.75
2023-04-02T11:23:11.308Z,99333.94
2023-04-02T11:26:29.182Z,99330.56
2023-04-02T11:29:34.813Z,99319.50
2023-04-02T11:32:45.255Z,99325.34
2023-04-02T11:35:48.367Z,99328.97
2023-04-02T11:38:52.940Z,99324.09
2023-04-02T11:42:21.213Z,99318.94
2023-04-02T11:45:26.735Z,99323.75
2023-04-02T11:48:36.194Z,99319.56
2023-04-02T11:51:39.096Z,99313.75
2023-04-02T11:54:42.815Z,99322.09
2023-04-02T11:58:04.758Z,99318.38
2023-04-02T12:01:33.994Z,99322.69
2023-04-02T12:05:04.568Z,99321.13
2023-04-02T12:08:57.935Z,99314.78
2023-04-02T12:12:26.231Z,99315.91
2023-04-02T12:15:43.600Z,99307.00
2023-04-02T12:18:54.088Z,99313.53
2023-04-02T12:21:59.323Z,99314.47
2023-04-02T12:25:22.189Z,99311.12
2023-04-02T12:28:28.977Z,99305.19
2023-04-02T12:31:33.724Z,99305.75
2023-04-02T12:34:36.920Z,99295.59
2023-04-02T12:37:40.013Z,99294.47
2023-04-02T12:41:00.771Z,99285.28
2023-04-02T12:44:16.520Z,99282.69
2023-04-02T12:47:19.220Z,99280.75
2023-04-02T12:50:22.928Z,99278.13
2023-04-02T12:53:36.651Z,99282.81
2023-04-02T12:56:40.087Z,99272.62
2023-04-02T12:59:43.826Z,99280.84
2023-04-02T13:02:58.582Z,99277.22
2023-04-02T13:06:01.533Z,99269.66
2023-04-02T13:09:36.333Z,99274.22
2023-04-02T13:12:41.278Z,99276.63
2023-04-02T13:15:44.586Z,99281.25
2023-04-02T13:18:49.304Z,99285.16
2023-04-02T13:21:53.271Z,99282.72
2023-04-02T13:24:58.212Z,99281.62
2023-04-02T13:28:02.044Z,99279.41
2023-04-02T13:31:04.847Z,99291.13
2023-04-02T13:34:07.898Z,99291.19
2023-04-02T13:37:14.000Z,99299.78
2023-04-02T13:40:19.418Z,99289.72
2023-04-02T13:43:34.719Z,99286.41
2023-04-02T13:46:41.341Z,99277.66
2023-04-02T13:49:44.518Z,99281.53
2023-04-02T13:52:50.648Z,99282.19
2023-04-02T13:55:54.026Z,99287.31
2023-04-02T13:58:57.069Z,99287.16
2023-04-02T14:02:07.618Z,99290.53
2023-04-02T14:05:24.033Z,99285.56
2023-04-02T14:08:51.661Z,99281.06
2023-04-02T14:12:14.007Z,99285.56
2023-04-02T14:15:33.199Z,99283.75
2023-04-02T14:18:38.032Z,99283.59
2023-04-02T14:22:06.527Z,99281.41
2023-04-02T14:25:34.204Z,99284.47
2023-04-02T14:28:49.450Z,99284.66
2023-04-02T14:31:55.481Z,99282.81
2023-04-02T14:35:13.370Z,99286.75
2023-04-02T14:38:34.150Z,99291.31
2023-04-02T14:41:56.981Z,99298.56
2023-04-02T14:45:17.076Z,99291.19
2023-04-02T14:48:24.724Z,99292.13
2023-04-02T14:51:37.496Z,99301.50
2023-04-02T14:55:03.331Z,99293.34
2023-04-02T14:58:16.420Z,99309.09
2023-04-02T15:01:27.896Z,99319.56
2023-04-02T15:04:46.210Z,99321.53
2023-04-02T15:08:24.671Z,99342.97
2023-04-02T15:11:35.137Z,99350.63
2023-04-02T15:14:45.916Z,99358.72
2023-04-02T15:17:49.103Z,99364.62
2023-04-02T15:21:09.251Z,99373.66
2023-04-02T15:24:47.744Z,99375.13
2023-04-02T15:28:09.741Z,99390.41
2023-04-02T15:31:14.718Z,99402.78
2023-04-02T15:34:22.351Z,99406.44
2023-04-02T15:37:45.308Z,99417.34
2023-04-02T15:40:51.694Z,99422.69
2023-04-02T15:44:04.504Z,99421.44
2023-04-02T15:47:33.947Z,99428.44
2023-04-02T15:50:51.410Z,99433.94
2023-04-02T15:54:12.156Z,99432.91
2023-04-02T15:57:21.045Z,99417.53
2023-04-02T16:00:52.608Z,99428.34
2023-04-02T16:04:21.079Z,99429.66
2023-04-02T16:07:40.242Z,99433.56
2023-04-02T16:10:45.778Z,99431.06
2023-04-02T16:13:49.358Z,99429.31
2023-04-02T16:16:59.911Z,99430.25
2023-04-02T16:20:22.039Z,99432.31
2023-04-02T16:23:45.660Z,99428.25
2023-04-02T16:27:08.951Z,99432.94
2023-04-02T16:30:49.772Z,99428.09
2023-04-02T16:34:06.264Z,99438.50
2023-04-02T16:37:31.330Z,99440.66
2023-04-02T16:41:07.900Z,99445.31
2023-04-02T16:44:28.854Z,99459.84
2023-04-02T16:48:08.160Z,99471.53
2023-04-02T16:51:47.444Z,99480.72
2023-04-02T16:55:43.427Z,99480.25
2023-04-02T16:59:49.011Z,99477.06
2023-04-02T17:03:24.352Z,99471.75
2023-04-02T17:06:49.081Z,99479.62
2023-04-02T17:09:54.331Z,99486.66
2023-04-02T17:13:18.734Z,99483.03
2023-04-02T17:16:32.381Z,99481.00
2023-04-02T17:19:36.495Z,99491.44
2023-04-02T17:22:40.819Z,99492.13
2023-04-02T17:25:58.169Z,99493.50
2023-04-02T17:29:08.427Z,99500.47
2023-04-02T17:32:24.866Z,99506.16
2023-04-02T17:35:36.135Z,99513.41
2023-04-02T17:39:04.592Z,99516.31
2023-04-02T17:42:21.336Z,99527.13
2023-04-02T17:45:34.956Z,99533.44
2023-04-02T17:48:51.640Z,99534.41
2023-04-02T17:52:06.866Z,99541.78
2023-04-02T17:55:46.374Z,99544.44
2023-04-02T17:59:03.411Z,99540.53
2023-04-02T18:02:19.635Z,99546.25
2023-04-02T18:05:43.862Z,99547.34
2023-04-02T18:13:07.788Z,99566.66
2023-04-02T18:16:42.800Z,99569.94
2023-04-02T18:20:01.273Z,99574.94
2023-04-02T18:23:20.652Z,99579.53
2023-04-02T18:26:44.700Z,99585.72
2023-04-02T18:30:09.489Z,99596.00
2023-04-02T18:33:13.919Z,99598.25
2023-04-02T18:36:28.900Z,99604.94
2023-04-02T18:40:09.729Z,99612.53
2023-04-02T18:43:35.013Z,99603.72
2023-04-02T18:46:46.781Z,99598.25
2023-04-02T18:50:05.739Z,99616.19
2023-04-02T18:53:23.075Z,99624.88
2023-04-02T18:56:32.347Z,99622.03
2023-04-02T18:59:55.778Z,99628.53
2023-04-02T19:03:30.293Z,99629.06
2023-04-02T19:06:52.611Z,99630.13
2023-04-02T19:10:02.973Z,99637.06
2023-04-02T19:13:17.968Z,99647.19
2023-04-02T19:16:27.432Z,99649.16
2023-04-02T19:19:46.813Z,99653.66
2023-04-02T19:23:11.586Z,99662.53
2023-04-02T19:26:25.057Z,99665.78
2023-04-02T19:29:53.162Z,99660.91
2023-04-02T19:33:11.020Z,99673.59
2023-04-02T19:36:41.383Z,99675.63
2023-04-02T19:40:04.880Z,99674.16
2023-04-02T19:43:10.752Z,99678.28
2023-04-02T19:46:14.771Z,99690.47
2023-04-02T19:49:39.737Z,99683.66
2023-04-02T19:52:43.056Z,99697.75
2023-04-02T19:55:47.822Z,99700.06
2023-04-02T19:58:51.549Z,99710.56
2023-04-02T20:01:55.032Z,99704.59
2023-04-02T20:04:58.175Z,99712.47
2023-04-02T20:08:01.006Z,99719.44
2023-04-02T20:11:05.432Z,99718.44
2023-04-02T20:14:10.007Z,99734.47
2023-04-02T20:17:13.355Z,99728.75
2023-04-02T20:20:16.993Z,99737.13
2023-04-02T20:23:20.981Z,99752.78
2023-04-02T20:26:23.761Z,99747.75
2023-04-02T20:29:29.497Z,99759.91
2023-04-02T20:32:36.553Z,99763.25
2023-04-02T20:35:41.583Z,99768.28
2023-04-02T20:38:45.809Z,99767.41
2023-04-02T20:41:49.011Z,99774.00
2023-04-02T20:44:51.915Z,99771.34
2023-04-02T20:47:55.388Z,99788.72
2023-04-02T20:51:00.095Z,99786.69
2023-04-02T20:54:18.201Z,99792.91
2023-04-02T20:57:22.139Z,99794.63
2023-04-02T21:00:25.478Z,99792.12
2023-04-02T21:03:28.101Z,99805.41
2023-04-02T21:06:33.652Z,99797.91
2023-04-02T21:09:36.193Z,99803.75
2023-04-02T21:12:39.058Z,99817.50
2023-04-02T21:15:44.390Z,99814.66
2023-04-02T21:18:49.316Z,99820.09
2023-04-02T21:21:55.175Z,99823.28
2023-04-02T21:24:57.954Z,99824.63
2023-04-02T21:28:00.793Z,99829.28
2023-04-02T21:31:10.952Z,99836.03
2023-04-02T21:34:15.754Z,99831.13
2023-04-02T21:37:18.680Z,99846.38
2023-04-02T21:40:21.794Z,99842.09
2023-04-02T21:43:24.585Z,99841.06
2023-04-02T21:46:31.248Z,99847.84
2023-04-02T21:49:34.278Z,99852.38
2023-04-02T21:52:37.070Z,99857.19
2023-04-02T21:55:39.963Z,99862.78
2023-04-02T21:58:44.197Z,99864.84
2023-04-02T22:01:49.382Z,99864.22
2023-04-02T22:04:52.358Z,99875.44
2023-04-02T22:07:54.984Z,99871.25
2023-04-02T22:10:57.785Z,99878.63
2023-04-02T22:14:01.985Z,99882.84
2023-04-02T22:17:07.444Z,99882.62
2023-04-02T22:20:10.801Z,99885.50
2023-04-02T22:23:13.684Z,99886.22
2023-04-02T22:26:18.527Z,99896.47
2023-04-02T22:29:21.840Z,99897.88
2023-04-02T22:32:25.712Z,99898.38
2023-04-02T22:35:30.727Z,99904.97
2023-04-02T22:38:34.681Z,99909.25
2023-04-02T22:41:38.393Z,99910.13
2023-04-02T22:44:41.346Z,99916.44
2023-04-02T22:47:44.483Z,99912.19
2023-04-02T22:50:50.860Z,99912.88
2023-04-02T22:53:54.769Z,99920.72
2023-04-02T22:57:00.119Z,99930.09
2023-04-02T23:00:06.531Z,99921.22
2023-04-02T23:03:11.790Z,99915.31
2023-04-02T23:06:17.156Z,99923.34
2023-04-02T23:09:20.290Z,99928.75
2023-04-02T23:12:23.690Z,99927.22
2023-04-02T23:15:26.332Z,99933.44
2023-04-02T23:18:31.762Z,99931.59
2023-04-02T23:21:34.659Z,99941.47
2023-04-02T23:24:37.481Z,99944.28
2023-04-02T23:27:40.217Z,99953.94
2023-04-02T23:30:44.104Z,99953.94
2023-04-02T23:33:46.891Z,99950.06
2023-04-02T23:36:49.719Z,99958.03
2023-04-02T23:39:52.340Z,99953.31
2023-04-02T23:42:55.186Z,99954.25
2023-04-02T23:45:57.858Z,99957.84
2023-04-02T23:49:01.586Z,99955.31
2023-04-02T23:52:04.281Z,99949.41
2023-04-02T23:55:07.530Z,99961.19
2023-04-02T23:58:10.110Z,99950.88
